Terminal Aerodrome Forecast
Issued by NWS

Current Version | Previous Version | Text Only | Print | Product List | Glossary Off
Versions: 1 2 3 4 5 6 7 8 9 10 11 12 13 14 15 16 17 18 19 20 21 22 23 24

000
FTUS41 KILN 242300
TAFLCK
TAF
KLCK 242338Z 2500/2524 VRB03KT P6SM BKN100 OVC200
     FM250600 07008KT P6SM OVC080
     FM251200 08010KT P6SM VCSH SCT050 OVC070
     FM251600 08011G21KT P6SM -SHRA SCT025 OVC040
     FM251900 07011G21KT 4SM -SHRA BKN025 OVC040
     FM252300 06012G20KT 5SM BR VCSH OVC022=

USA.gov is the U.S. government's official web portal to all federal, state and local government web resources and services.